sensor_id;sensor_type;location;lat;lon;timestamp;P1;durP1;ratioP1;P2;durP2;ratioP2
25721;SDS011;13578;53.450;15.496;2024-02-28T00:01:36;24.80;;;15.35;;
25721;SDS011;13578;53.450;15.496;2024-02-28T00:04:39;31.23;;;15.75;;
25721;SDS011;13578;53.450;15.496;2024-02-28T00:07:40;26.38;;;14.77;;
25721;SDS011;13578;53.450;15.496;2024-02-28T00:10:41;34.47;;;16.98;;
25721;SDS011;13578;53.450;15.496;2024-02-28T00:13:45;28.65;;;16.67;;
25721;SDS011;13578;53.450;15.496;2024-02-28T00:16:46;27.85;;;14.63;;
25721;SDS011;13578;53.450;15.496;2024-02-28T00:19:48;27.52;;;15.35;;
25721;SDS011;13578;53.450;15.496;2024-02-28T00:22:48;25.92;;;15.63;;
25721;SDS011;13578;53.450;15.496;2024-02-28T00:25:49;34.47;;;15.13;;
25721;SDS011;13578;53.450;15.496;2024-02-28T00:28:49;30.25;;;15.07;;
25721;SDS011;13578;53.450;15.496;2024-02-28T00:31:50;34.22;;;15.27;;
25721;SDS011;13578;53.450;15.496;2024-02-28T00:34:51;32.75;;;16.70;;
25721;SDS011;13578;53.450;15.496;2024-02-28T00:37:51;32.50;;;16.15;;
25721;SDS011;13578;53.450;15.496;2024-02-28T00:40:52;28.98;;;15.63;;
25721;SDS011;13578;53.450;15.496;2024-02-28T00:43:52;29.83;;;16.45;;
25721;SDS011;13578;53.450;15.496;2024-02-28T00:46:53;30.92;;;16.70;;
25721;SDS011;13578;53.450;15.496;2024-02-28T00:49:54;31.88;;;16.80;;
25721;SDS011;13578;53.450;15.496;2024-02-28T00:52:54;49.75;;;17.67;;
25721;SDS011;13578;53.450;15.496;2024-02-28T00:55:55;38.80;;;16.08;;
25721;SDS011;13578;53.450;15.496;2024-02-28T00:58:55;31.05;;;16.15;;
25721;SDS011;13578;53.450;15.496;2024-02-28T01:01:56;33.17;;;16.13;;
25721;SDS011;13578;53.450;15.496;2024-02-28T01:04:56;31.00;;;16.00;;
25721;SDS011;13578;53.450;15.496;2024-02-28T01:07:57;24.90;;;15.07;;
25721;SDS011;13578;53.450;15.496;2024-02-28T01:10:58;27.42;;;16.20;;
25721;SDS011;13578;53.450;15.496;2024-02-28T01:13:59;30.50;;;16.60;;
25721;SDS011;13578;53.450;15.496;2024-02-28T01:16:59;26.23;;;14.82;;
25721;SDS011;13578;53.450;15.496;2024-02-28T01:20:00;30.13;;;15.48;;
25721;SDS011;13578;53.450;15.496;2024-02-28T01:23:01;32.58;;;16.67;;
25721;SDS011;13578;53.450;15.496;2024-02-28T01:26:01;27.98;;;16.00;;
25721;SDS011;13578;53.450;15.496;2024-02-28T01:29:04;26.63;;;14.38;;
25721;SDS011;13578;53.450;15.496;2024-02-28T01:32:04;28.58;;;16.30;;
25721;SDS011;13578;53.450;15.496;2024-02-28T01:35:07;30.10;;;16.63;;
25721;SDS011;13578;53.450;15.496;2024-02-28T01:38:08;28.60;;;15.25;;
25721;SDS011;13578;53.450;15.496;2024-02-28T01:41:09;34.58;;;16.38;;
25721;SDS011;13578;53.450;15.496;2024-02-28T01:44:10;29.25;;;17.25;;
25721;SDS011;13578;53.450;15.496;2024-02-28T01:47:10;29.73;;;16.88;;
25721;SDS011;13578;53.450;15.496;2024-02-28T01:50:11;34.90;;;17.10;;
25721;SDS011;13578;53.450;15.496;2024-02-28T01:53:12;32.30;;;16.90;;
25721;SDS011;13578;53.450;15.496;2024-02-28T01:56:14;28.95;;;15.65;;
25721;SDS011;13578;53.450;15.496;2024-02-28T01:59:16;31.73;;;15.80;;
25721;SDS011;13578;53.450;15.496;2024-02-28T02:02:18;36.97;;;16.40;;
25721;SDS011;13578;53.450;15.496;2024-02-28T02:05:18;31.00;;;16.00;;
25721;SDS011;13578;53.450;15.496;2024-02-28T02:08:21;31.98;;;16.67;;
25721;SDS011;13578;53.450;15.496;2024-02-28T02:11:23;30.17;;;16.20;;
25721;SDS011;13578;53.450;15.496;2024-02-28T02:14:25;32.38;;;17.48;;
25721;SDS011;13578;53.450;15.496;2024-02-28T02:17:25;31.83;;;17.02;;
25721;SDS011;13578;53.450;15.496;2024-02-28T02:20:26;34.30;;;18.83;;
25721;SDS011;13578;53.450;15.496;2024-02-28T02:23:32;54.67;;;19.65;;
25721;SDS011;13578;53.450;15.496;2024-02-28T02:26:33;30.85;;;17.15;;
25721;SDS011;13578;53.450;15.496;2024-02-28T02:29:33;31.88;;;17.02;;
25721;SDS011;13578;53.450;15.496;2024-02-28T02:32:34;35.85;;;18.30;;
25721;SDS011;13578;53.450;15.496;2024-02-28T02:35:35;34.47;;;17.50;;
25721;SDS011;13578;53.450;15.496;2024-02-28T02:38:35;32.55;;;17.70;;
25721;SDS011;13578;53.450;15.496;2024-02-28T02:41:36;34.33;;;18.15;;
25721;SDS011;13578;53.450;15.496;2024-02-28T02:44:37;29.60;;;16.83;;
25721;SDS011;13578;53.450;15.496;2024-02-28T02:47:37;29.27;;;16.55;;
25721;SDS011;13578;53.450;15.496;2024-02-28T02:50:38;29.48;;;15.50;;
25721;SDS011;13578;53.450;15.496;2024-02-28T02:53:39;30.83;;;16.45;;
25721;SDS011;13578;53.450;15.496;2024-02-28T02:56:42;33.15;;;17.80;;
25721;SDS011;13578;53.450;15.496;2024-02-28T02:59:43;38.92;;;19.52;;
25721;SDS011;13578;53.450;15.496;2024-02-28T03:02:44;33.72;;;17.85;;
25721;SDS011;13578;53.450;15.496;2024-02-28T03:05:44;31.05;;;16.83;;
25721;SDS011;13578;53.450;15.496;2024-02-28T03:08:45;40.08;;;17.77;;
25721;SDS011;13578;53.450;15.496;2024-02-28T03:11:46;36.10;;;17.10;;
25721;SDS011;13578;53.450;15.496;2024-02-28T03:14:47;41.42;;;18.75;;
25721;SDS011;13578;53.450;15.496;2024-02-28T03:17:48;44.63;;;18.08;;
25721;SDS011;13578;53.450;15.496;2024-02-28T03:20:49;39.20;;;17.92;;
25721;SDS011;13578;53.450;15.496;2024-02-28T03:23:50;40.15;;;18.10;;
25721;SDS011;13578;53.450;15.496;2024-02-28T03:26:50;28.88;;;16.13;;
25721;SDS011;13578;53.450;15.496;2024-02-28T03:29:51;33.15;;;17.13;;
25721;SDS011;13578;53.450;15.496;2024-02-28T03:32:52;38.42;;;17.48;;
25721;SDS011;13578;53.450;15.496;2024-02-28T03:35:52;31.77;;;16.75;;
25721;SDS011;13578;53.450;15.496;2024-02-28T03:38:53;37.40;;;17.88;;
25721;SDS011;13578;53.450;15.496;2024-02-28T03:41:53;31.33;;;16.23;;
25721;SDS011;13578;53.450;15.496;2024-02-28T03:44:54;34.78;;;16.73;;
25721;SDS011;13578;53.450;15.496;2024-02-28T03:47:55;32.28;;;15.82;;
25721;SDS011;13578;53.450;15.496;2024-02-28T03:50:56;27.67;;;15.38;;
25721;SDS011;13578;53.450;15.496;2024-02-28T03:53:56;30.83;;;15.68;;
25721;SDS011;13578;53.450;15.496;2024-02-28T03:56:57;34.80;;;18.17;;
25721;SDS011;13578;53.450;15.496;2024-02-28T04:00:00;34.45;;;16.70;;
25721;SDS011;13578;53.450;15.496;2024-02-28T04:03:02;34.65;;;17.40;;
25721;SDS011;13578;53.450;15.496;2024-02-28T04:06:04;41.72;;;15.77;;
25721;SDS011;13578;53.450;15.496;2024-02-28T04:09:05;39.08;;;17.38;;
25721;SDS011;13578;53.450;15.496;2024-02-28T04:12:06;44.15;;;18.17;;
25721;SDS011;13578;53.450;15.496;2024-02-28T04:15:07;45.35;;;18.58;;
25721;SDS011;13578;53.450;15.496;2024-02-28T04:18:07;43.53;;;17.98;;
25721;SDS011;13578;53.450;15.496;2024-02-28T04:21:08;37.25;;;18.63;;
25721;SDS011;13578;53.450;15.496;2024-02-28T04:24:09;47.60;;;17.88;;
25721;SDS011;13578;53.450;15.496;2024-02-28T04:27:10;34.28;;;16.95;;
25721;SDS011;13578;53.450;15.496;2024-02-28T04:30:11;31.08;;;15.77;;
25721;SDS011;13578;53.450;15.496;2024-02-28T04:33:12;34.63;;;17.17;;
25721;SDS011;13578;53.450;15.496;2024-02-28T04:36:13;38.40;;;17.50;;
25721;SDS011;13578;53.450;15.496;2024-02-28T04:39:15;36.97;;;17.25;;
25721;SDS011;13578;53.450;15.496;2024-02-28T04:42:15;35.92;;;17.20;;
25721;SDS011;13578;53.450;15.496;2024-02-28T04:45:16;38.20;;;17.13;;
25721;SDS011;13578;53.450;15.496;2024-02-28T04:48:17;37.38;;;16.45;;
25721;SDS011;13578;53.450;15.496;2024-02-28T04:51:18;34.50;;;17.05;;
25721;SDS011;13578;53.450;15.496;2024-02-28T04:54:19;37.10;;;16.02;;
25721;SDS011;13578;53.450;15.496;2024-02-28T04:57:19;30.33;;;15.63;;
25721;SDS011;13578;53.450;15.496;2024-02-28T05:00:20;31.55;;;15.80;;
25721;SDS011;13578;53.450;15.496;2024-02-28T05:03:21;42.83;;;16.92;;
25721;SDS011;13578;53.450;15.496;2024-02-28T05:06:22;41.90;;;17.00;;
25721;SDS011;13578;53.450;15.496;2024-02-28T05:09:23;32.55;;;16.95;;
25721;SDS011;13578;53.450;15.496;2024-02-28T05:12:24;40.10;;;17.95;;
25721;SDS011;13578;53.450;15.496;2024-02-28T05:15:24;32.05;;;17.13;;
25721;SDS011;13578;53.450;15.496;2024-02-28T05:18:25;31.33;;;16.58;;
25721;SDS011;13578;53.450;15.496;2024-02-28T05:21:25;32.92;;;16.67;;
25721;SDS011;13578;53.450;15.496;2024-02-28T05:24:26;24.65;;;14.82;;
25721;SDS011;13578;53.450;15.496;2024-02-28T05:27:27;33.13;;;15.63;;
25721;SDS011;13578;53.450;15.496;2024-02-28T05:30:28;36.70;;;16.73;;
25721;SDS011;13578;53.450;15.496;2024-02-28T05:33:28;41.35;;;16.70;;
25721;SDS011;13578;53.450;15.496;2024-02-28T05:36:29;32.78;;;16.25;;
25721;SDS011;13578;53.450;15.496;2024-02-28T05:39:30;36.28;;;15.60;;
25721;SDS011;13578;53.450;15.496;2024-02-28T05:42:31;38.53;;;16.17;;
25721;SDS011;13578;53.450;15.496;2024-02-28T05:45:32;27.35;;;15.32;;
25721;SDS011;13578;53.450;15.496;2024-02-28T05:48:32;30.63;;;16.02;;
25721;SDS011;13578;53.450;15.496;2024-02-28T05:51:33;33.00;;;15.23;;
25721;SDS011;13578;53.450;15.496;2024-02-28T05:54:34;27.60;;;15.10;;
25721;SDS011;13578;53.450;15.496;2024-02-28T05:57:34;21.38;;;12.43;;
25721;SDS011;13578;53.450;15.496;2024-02-28T06:00:35;21.75;;;14.10;;
25721;SDS011;13578;53.450;15.496;2024-02-28T06:03:36;28.30;;;13.68;;
25721;SDS011;13578;53.450;15.496;2024-02-28T06:06:37;30.13;;;13.05;;
25721;SDS011;13578;53.450;15.496;2024-02-28T06:09:38;40.53;;;14.40;;
25721;SDS011;13578;53.450;15.496;2024-02-28T06:12:39;37.25;;;13.48;;
25721;SDS011;13578;53.450;15.496;2024-02-28T06:15:40;43.72;;;13.85;;
25721;SDS011;13578;53.450;15.496;2024-02-28T06:18:41;24.05;;;13.75;;
25721;SDS011;13578;53.450;15.496;2024-02-28T06:21:41;27.33;;;13.45;;
25721;SDS011;13578;53.450;15.496;2024-02-28T06:24:42;23.63;;;12.68;;
25721;SDS011;13578;53.450;15.496;2024-02-28T06:27:42;26.17;;;11.73;;
25721;SDS011;13578;53.450;15.496;2024-02-28T06:30:43;21.30;;;11.05;;
25721;SDS011;13578;53.450;15.496;2024-02-28T06:33:47;22.63;;;12.10;;
25721;SDS011;13578;53.450;15.496;2024-02-28T06:36:48;21.27;;;12.38;;
25721;SDS011;13578;53.450;15.496;2024-02-28T06:39:48;26.15;;;12.45;;
25721;SDS011;13578;53.450;15.496;2024-02-28T06:42:49;20.08;;;12.18;;
25721;SDS011;13578;53.450;15.496;2024-02-28T06:45:50;22.17;;;10.93;;
25721;SDS011;13578;53.450;15.496;2024-02-28T06:48:50;26.63;;;11.60;;
25721;SDS011;13578;53.450;15.496;2024-02-28T06:51:51;21.65;;;12.20;;
25721;SDS011;13578;53.450;15.496;2024-02-28T06:54:52;19.20;;;11.75;;
25721;SDS011;13578;53.450;15.496;2024-02-28T06:57:52;34.60;;;13.80;;
25721;SDS011;13578;53.450;15.496;2024-02-28T07:00:53;24.88;;;12.43;;
25721;SDS011;13578;53.450;15.496;2024-02-28T07:03:54;24.52;;;15.57;;
25721;SDS011;13578;53.450;15.496;2024-02-28T07:06:54;65.38;;;27.40;;
25721;SDS011;13578;53.450;15.496;2024-02-28T07:09:55;69.20;;;31.88;;
25721;SDS011;13578;53.450;15.496;2024-02-28T07:12:56;60.67;;;24.77;;
25721;SDS011;13578;53.450;15.496;2024-02-28T07:15:57;33.03;;;16.30;;
25721;SDS011;13578;53.450;15.496;2024-02-28T07:18:58;35.28;;;18.63;;
25721;SDS011;13578;53.450;15.496;2024-02-28T07:21:59;34.35;;;13.57;;
25721;SDS011;13578;53.450;15.496;2024-02-28T07:25:00;27.50;;;15.52;;
25721;SDS011;13578;53.450;15.496;2024-02-28T07:28:01;28.55;;;16.98;;
25721;SDS011;13578;53.450;15.496;2024-02-28T07:31:02;34.88;;;15.40;;
25721;SDS011;13578;53.450;15.496;2024-02-28T07:34:03;25.05;;;15.05;;
25721;SDS011;13578;53.450;15.496;2024-02-28T07:37:04;30.55;;;14.80;;
25721;SDS011;13578;53.450;15.496;2024-02-28T07:40:05;30.40;;;15.05;;
25721;SDS011;13578;53.450;15.496;2024-02-28T07:43:08;33.05;;;13.85;;
25721;SDS011;13578;53.450;15.496;2024-02-28T07:46:09;72.45;;;25.20;;
25721;SDS011;13578;53.450;15.496;2024-02-28T07:49:12;32.75;;;16.60;;
25721;SDS011;13578;53.450;15.496;2024-02-28T07:52:13;31.25;;;16.45;;
25721;SDS011;13578;53.450;15.496;2024-02-28T07:55:14;32.20;;;12.70;;
25721;SDS011;13578;53.450;15.496;2024-02-28T07:58:15;33.22;;;14.05;;
25721;SDS011;13578;53.450;15.496;2024-02-28T08:01:16;29.33;;;13.52;;
25721;SDS011;13578;53.450;15.496;2024-02-28T08:04:17;31.75;;;14.35;;
25721;SDS011;13578;53.450;15.496;2024-02-28T08:07:18;39.33;;;18.17;;
25721;SDS011;13578;53.450;15.496;2024-02-28T08:10:18;23.23;;;13.38;;
25721;SDS011;13578;53.450;15.496;2024-02-28T08:13:20;29.98;;;14.48;;
25721;SDS011;13578;53.450;15.496;2024-02-28T08:16:21;27.33;;;12.90;;
25721;SDS011;13578;53.450;15.496;2024-02-28T08:19:21;36.15;;;16.52;;
25721;SDS011;13578;53.450;15.496;2024-02-28T08:22:22;36.72;;;18.23;;
25721;SDS011;13578;53.450;15.496;2024-02-28T08:25:25;31.08;;;13.63;;
25721;SDS011;13578;53.450;15.496;2024-02-28T08:28:25;26.48;;;12.50;;
25721;SDS011;13578;53.450;15.496;2024-02-28T08:31:26;31.35;;;12.75;;
25721;SDS011;13578;53.450;15.496;2024-02-28T08:34:26;28.33;;;14.32;;
25721;SDS011;13578;53.450;15.496;2024-02-28T08:37:27;24.42;;;12.38;;
25721;SDS011;13578;53.450;15.496;2024-02-28T08:40:29;21.75;;;11.73;;
25721;SDS011;13578;53.450;15.496;2024-02-28T08:43:30;23.02;;;10.77;;
25721;SDS011;13578;53.450;15.496;2024-02-28T08:46:31;26.50;;;10.77;;
25721;SDS011;13578;53.450;15.496;2024-02-28T08:49:31;22.05;;;9.95;;
25721;SDS011;13578;53.450;15.496;2024-02-28T08:52:32;19.02;;;10.95;;
25721;SDS011;13578;53.450;15.496;2024-02-28T08:55:33;16.38;;;10.18;;
25721;SDS011;13578;53.450;15.496;2024-02-28T08:58:33;22.25;;;10.00;;
25721;SDS011;13578;53.450;15.496;2024-02-28T09:01:34;21.23;;;10.32;;
25721;SDS011;13578;53.450;15.496;2024-02-28T09:04:36;19.33;;;10.50;;
25721;SDS011;13578;53.450;15.496;2024-02-28T09:07:36;18.15;;;9.95;;
25721;SDS011;13578;53.450;15.496;2024-02-28T09:10:37;25.02;;;10.63;;
25721;SDS011;13578;53.450;15.496;2024-02-28T09:13:37;15.30;;;9.23;;
25721;SDS011;13578;53.450;15.496;2024-02-28T09:16:38;21.38;;;11.40;;
25721;SDS011;13578;53.450;15.496;2024-02-28T09:19:38;34.78;;;14.60;;
25721;SDS011;13578;53.450;15.496;2024-02-28T09:22:39;38.28;;;16.55;;
25721;SDS011;13578;53.450;15.496;2024-02-28T09:25:43;32.55;;;16.08;;
25721;SDS011;13578;53.450;15.496;2024-02-28T09:28:43;22.60;;;12.40;;
25721;SDS011;13578;53.450;15.496;2024-02-28T09:31:44;20.63;;;11.02;;
25721;SDS011;13578;53.450;15.496;2024-02-28T09:34:44;22.98;;;12.02;;
25721;SDS011;13578;53.450;15.496;2024-02-28T09:37:45;20.35;;;10.02;;
25721;SDS011;13578;53.450;15.496;2024-02-28T09:40:46;26.15;;;11.43;;
25721;SDS011;13578;53.450;15.496;2024-02-28T09:43:48;22.83;;;10.32;;
25721;SDS011;13578;53.450;15.496;2024-02-28T09:46:50;22.35;;;10.27;;
25721;SDS011;13578;53.450;15.496;2024-02-28T09:49:51;19.83;;;10.70;;
25721;SDS011;13578;53.450;15.496;2024-02-28T09:52:55;16.10;;;9.93;;
25721;SDS011;13578;53.450;15.496;2024-02-28T09:55:56;22.75;;;11.23;;
25721;SDS011;13578;53.450;15.496;2024-02-28T09:58:57;62.60;;;20.90;;
25721;SDS011;13578;53.450;15.496;2024-02-28T10:01:59;30.70;;;12.90;;
25721;SDS011;13578;53.450;15.496;2024-02-28T10:05:01;25.83;;;11.02;;
25721;SDS011;13578;53.450;15.496;2024-02-28T10:08:04;25.60;;;11.70;;
25721;SDS011;13578;53.450;15.496;2024-02-28T10:11:05;80.82;;;33.38;;
25721;SDS011;13578;53.450;15.496;2024-02-28T10:14:06;38.10;;;17.38;;
25721;SDS011;13578;53.450;15.496;2024-02-28T10:17:06;31.80;;;11.85;;
25721;SDS011;13578;53.450;15.496;2024-02-28T10:20:08;26.90;;;15.13;;
25721;SDS011;13578;53.450;15.496;2024-02-28T10:23:09;20.48;;;9.18;;
25721;SDS011;13578;53.450;15.496;2024-02-28T10:26:12;26.30;;;11.90;;
25721;SDS011;13578;53.450;15.496;2024-02-28T10:29:13;17.27;;;11.63;;
25721;SDS011;13578;53.450;15.496;2024-02-28T10:32:14;15.23;;;8.10;;
25721;SDS011;13578;53.450;15.496;2024-02-28T10:35:14;17.95;;;9.43;;
25721;SDS011;13578;53.450;15.496;2024-02-28T10:38:18;18.50;;;8.38;;
25721;SDS011;13578;53.450;15.496;2024-02-28T10:41:20;28.40;;;13.60;;
25721;SDS011;13578;53.450;15.496;2024-02-28T10:44:20;18.95;;;9.93;;
25721;SDS011;13578;53.450;15.496;2024-02-28T10:47:22;12.98;;;9.32;;
25721;SDS011;13578;53.450;15.496;2024-02-28T10:50:24;17.40;;;8.05;;
25721;SDS011;13578;53.450;15.496;2024-02-28T10:53:31;18.30;;;10.52;;
25721;SDS011;13578;53.450;15.496;2024-02-28T10:56:37;17.23;;;11.23;;
25721;SDS011;13578;53.450;15.496;2024-02-28T10:59:38;11.45;;;7.43;;
25721;SDS011;13578;53.450;15.496;2024-02-28T11:02:43;14.77;;;7.87;;
25721;SDS011;13578;53.450;15.496;2024-02-28T11:05:45;27.50;;;12.55;;
25721;SDS011;13578;53.450;15.496;2024-02-28T11:08:47;20.85;;;9.40;;
25721;SDS011;13578;53.450;15.496;2024-02-28T11:11:54;17.50;;;10.00;;
25721;SDS011;13578;53.450;15.496;2024-02-28T11:14:59;15.90;;;9.50;;
25721;SDS011;13578;53.450;15.496;2024-02-28T11:18:08;14.70;;;8.15;;
25721;SDS011;13578;53.450;15.496;2024-02-28T11:21:18;23.70;;;10.90;;
25721;SDS011;13578;53.450;15.496;2024-02-28T11:24:22;19.10;;;10.30;;
25721;SDS011;13578;53.450;15.496;2024-02-28T11:27:23;18.92;;;10.73;;
25721;SDS011;13578;53.450;15.496;2024-02-28T11:30:25;10.77;;;8.23;;
25721;SDS011;13578;53.450;15.496;2024-02-28T11:33:25;16.92;;;9.52;;
25721;SDS011;13578;53.450;15.496;2024-02-28T11:36:26;15.20;;;9.75;;
25721;SDS011;13578;53.450;15.496;2024-02-28T11:39:28;16.58;;;9.55;;
25721;SDS011;13578;53.450;15.496;2024-02-28T11:42:31;15.35;;;9.77;;
25721;SDS011;13578;53.450;15.496;2024-02-28T11:45:38;39.25;;;12.80;;
25721;SDS011;13578;53.450;15.496;2024-02-28T11:48:41;17.27;;;9.90;;
25721;SDS011;13578;53.450;15.496;2024-02-28T11:51:42;20.48;;;11.27;;
25721;SDS011;13578;53.450;15.496;2024-02-28T11:54:44;21.95;;;12.77;;
25721;SDS011;13578;53.450;15.496;2024-02-28T11:57:46;28.27;;;14.23;;
25721;SDS011;13578;53.450;15.496;2024-02-28T12:00:47;24.27;;;14.35;;
25721;SDS011;13578;53.450;15.496;2024-02-28T12:03:48;20.08;;;14.38;;
25721;SDS011;13578;53.450;15.496;2024-02-28T12:06:51;22.27;;;15.32;;
25721;SDS011;13578;53.450;15.496;2024-02-28T12:09:53;29.08;;;15.30;;
25721;SDS011;13578;53.450;15.496;2024-02-28T12:12:58;29.88;;;18.42;;
25721;SDS011;13578;53.450;15.496;2024-02-28T12:16:00;26.60;;;14.60;;
25721;SDS011;13578;53.450;15.496;2024-02-28T12:19:02;34.40;;;22.15;;
25721;SDS011;13578;53.450;15.496;2024-02-28T12:22:04;38.25;;;18.73;;
25721;SDS011;13578;53.450;15.496;2024-02-28T12:25:05;35.00;;;20.73;;
25721;SDS011;13578;53.450;15.496;2024-02-28T12:28:06;27.58;;;15.52;;
25721;SDS011;13578;53.450;15.496;2024-02-28T12:31:07;41.28;;;27.25;;
25721;SDS011;13578;53.450;15.496;2024-02-28T12:34:11;27.33;;;18.50;;
25721;SDS011;13578;53.450;15.496;2024-02-28T12:37:15;26.25;;;15.57;;
25721;SDS011;13578;53.450;15.496;2024-02-28T12:40:16;15.40;;;11.32;;
25721;SDS011;13578;53.450;15.496;2024-02-28T12:43:17;20.55;;;10.65;;
25721;SDS011;13578;53.450;15.496;2024-02-28T12:46:17;19.65;;;12.48;;
25721;SDS011;13578;53.450;15.496;2024-02-28T12:49:18;35.00;;;21.27;;
25721;SDS011;13578;53.450;15.496;2024-02-28T12:52:19;23.88;;;13.93;;
25721;SDS011;13578;53.450;15.496;2024-02-28T12:55:20;15.45;;;11.32;;
25721;SDS011;13578;53.450;15.496;2024-02-28T12:58:21;17.60;;;10.30;;
25721;SDS011;13578;53.450;15.496;2024-02-28T13:01:24;17.33;;;11.18;;
25721;SDS011;13578;53.450;15.496;2024-02-28T13:04:25;12.55;;;9.02;;
25721;SDS011;13578;53.450;15.496;2024-02-28T13:07:30;14.60;;;9.98;;
25721;SDS011;13578;53.450;15.496;2024-02-28T13:10:31;11.43;;;8.27;;
25721;SDS011;13578;53.450;15.496;2024-02-28T13:13:34;12.15;;;7.72;;
25721;SDS011;13578;53.450;15.496;2024-02-28T13:16:34;11.93;;;9.20;;
25721;SDS011;13578;53.450;15.496;2024-02-28T13:19:35;20.05;;;11.25;;
25721;SDS011;13578;53.450;15.496;2024-02-28T13:22:36;20.27;;;10.05;;
25721;SDS011;13578;53.450;15.496;2024-02-28T13:25:37;9.65;;;8.02;;
25721;SDS011;13578;53.450;15.496;2024-02-28T13:28:37;11.32;;;7.35;;
25721;SDS011;13578;53.450;15.496;2024-02-28T13:31:38;12.38;;;8.05;;
25721;SDS011;13578;53.450;15.496;2024-02-28T13:34:39;15.02;;;10.23;;
25721;SDS011;13578;53.450;15.496;2024-02-28T13:37:40;14.15;;;7.90;;
25721;SDS011;13578;53.450;15.496;2024-02-28T13:40:41;7.70;;;6.57;;
25721;SDS011;13578;53.450;15.496;2024-02-28T13:43:44;22.80;;;6.00;;
25721;SDS011;13578;53.450;15.496;2024-02-28T13:46:45;12.75;;;6.72;;
25721;SDS011;13578;53.450;15.496;2024-02-28T13:49:46;9.73;;;7.05;;
25721;SDS011;13578;53.450;15.496;2024-02-28T13:52:47;12.88;;;7.85;;
25721;SDS011;13578;53.450;15.496;2024-02-28T13:55:48;16.80;;;9.85;;
25721;SDS011;13578;53.450;15.496;2024-02-28T13:58:48;9.90;;;7.03;;
25721;SDS011;13578;53.450;15.496;2024-02-28T14:01:49;9.40;;;6.55;;
25721;SDS011;13578;53.450;15.496;2024-02-28T14:04:50;12.02;;;6.82;;
25721;SDS011;13578;53.450;15.496;2024-02-28T14:07:51;21.67;;;11.10;;
25721;SDS011;13578;53.450;15.496;2024-02-28T14:10:52;13.50;;;8.05;;
25721;SDS011;13578;53.450;15.496;2024-02-28T14:13:53;19.08;;;9.60;;
25721;SDS011;13578;53.450;15.496;2024-02-28T14:16:53;8.73;;;6.50;;
25721;SDS011;13578;53.450;15.496;2024-02-28T14:19:54;8.80;;;6.65;;
25721;SDS011;13578;53.450;15.496;2024-02-28T14:22:54;10.93;;;6.07;;
25721;SDS011;13578;53.450;15.496;2024-02-28T14:25:57;10.98;;;7.82;;
25721;SDS011;13578;53.450;15.496;2024-02-28T14:29:00;10.82;;;7.20;;
25721;SDS011;13578;53.450;15.496;2024-02-28T14:32:01;8.52;;;6.80;;
25721;SDS011;13578;53.450;15.496;2024-02-28T14:35:02;8.40;;;6.53;;
25721;SDS011;13578;53.450;15.496;2024-02-28T14:38:06;9.65;;;6.60;;
25721;SDS011;13578;53.450;15.496;2024-02-28T14:41:07;6.53;;;5.30;;
25721;SDS011;13578;53.450;15.496;2024-02-28T14:48:04;5.93;;;5.32;;
25721;SDS011;13578;53.450;15.496;2024-02-28T14:51:05;9.05;;;5.80;;
25721;SDS011;13578;53.450;15.496;2024-02-28T14:57:28;6.70;;;5.93;;
25721;SDS011;13578;53.450;15.496;2024-02-28T15:00:30;8.77;;;7.15;;
25721;SDS011;13578;53.450;15.496;2024-02-28T15:03:31;8.85;;;7.15;;
25721;SDS011;13578;53.450;15.496;2024-02-28T15:06:32;6.88;;;6.10;;
25721;SDS011;13578;53.450;15.496;2024-02-28T15:09:33;8.45;;;6.65;;
25721;SDS011;13578;53.450;15.496;2024-02-28T15:12:33;6.65;;;5.68;;
25721;SDS011;13578;53.450;15.496;2024-02-28T15:15:37;8.00;;;5.18;;
25721;SDS011;13578;53.450;15.496;2024-02-28T15:18:37;9.85;;;6.60;;
25721;SDS011;13578;53.450;15.496;2024-02-28T15:21:38;9.57;;;7.15;;
25721;SDS011;13578;53.450;15.496;2024-02-28T15:24:58;9.82;;;8.18;;
25721;SDS011;13578;53.450;15.496;2024-02-28T15:28:08;10.98;;;7.85;;
25721;SDS011;13578;53.450;15.496;2024-02-28T15:31:22;16.45;;;8.45;;
25721;SDS011;13578;53.450;15.496;2024-02-28T15:34:26;10.90;;;7.82;;
25721;SDS011;13578;53.450;15.496;2024-02-28T15:41:03;18.20;;;12.15;;
25721;SDS011;13578;53.450;15.496;2024-02-28T15:44:04;9.18;;;7.60;;
25721;SDS011;13578;53.450;15.496;2024-02-28T15:47:05;13.23;;;7.53;;
25721;SDS011;13578;53.450;15.496;2024-02-28T15:50:06;12.90;;;8.52;;
25721;SDS011;13578;53.450;15.496;2024-02-28T15:53:07;10.30;;;8.85;;
25721;SDS011;13578;53.450;15.496;2024-02-28T15:56:08;15.20;;;9.63;;
25721;SDS011;13578;53.450;15.496;2024-02-28T15:59:09;14.20;;;9.32;;
25721;SDS011;13578;53.450;15.496;2024-02-28T16:02:12;14.15;;;9.48;;
25721;SDS011;13578;53.450;15.496;2024-02-28T16:05:12;11.80;;;8.35;;
25721;SDS011;13578;53.450;15.496;2024-02-28T16:08:13;11.90;;;7.80;;
25721;SDS011;13578;53.450;15.496;2024-02-28T16:11:14;10.50;;;7.93;;
25721;SDS011;13578;53.450;15.496;2024-02-28T16:14:14;14.25;;;8.18;;
25721;SDS011;13578;53.450;15.496;2024-02-28T16:17:15;12.15;;;8.35;;
25721;SDS011;13578;53.450;15.496;2024-02-28T16:20:16;14.23;;;8.48;;
25721;SDS011;13578;53.450;15.496;2024-02-28T16:23:18;15.13;;;8.68;;
25721;SDS011;13578;53.450;15.496;2024-02-28T16:26:18;15.65;;;8.88;;
25721;SDS011;13578;53.450;15.496;2024-02-28T16:29:19;19.10;;;10.68;;
25721;SDS011;13578;53.450;15.496;2024-02-28T16:32:19;17.77;;;10.68;;
25721;SDS011;13578;53.450;15.496;2024-02-28T16:35:20;23.30;;;11.43;;
25721;SDS011;13578;53.450;15.496;2024-02-28T16:38:21;19.35;;;11.93;;
25721;SDS011;13578;53.450;15.496;2024-02-28T16:41:21;23.45;;;13.00;;
25721;SDS011;13578;53.450;15.496;2024-02-28T16:44:22;21.65;;;12.20;;
25721;SDS011;13578;53.450;15.496;2024-02-28T16:47:22;26.45;;;12.43;;
25721;SDS011;13578;53.450;15.496;2024-02-28T16:50:24;29.10;;;13.07;;
25721;SDS011;13578;53.450;15.496;2024-02-28T16:53:24;33.33;;;14.95;;
25721;SDS011;13578;53.450;15.496;2024-02-28T16:56:30;33.15;;;15.50;;
25721;SDS011;13578;53.450;15.496;2024-02-28T16:59:31;35.40;;;15.45;;
25721;SDS011;13578;53.450;15.496;2024-02-28T17:02:32;30.48;;;14.13;;
25721;SDS011;13578;53.450;15.496;2024-02-28T17:05:32;37.92;;;15.90;;
25721;SDS011;13578;53.450;15.496;2024-02-28T17:08:38;36.83;;;15.93;;
25721;SDS011;13578;53.450;15.496;2024-02-28T17:11:39;42.67;;;17.20;;
25721;SDS011;13578;53.450;15.496;2024-02-28T17:14:39;52.75;;;18.98;;
25721;SDS011;13578;53.450;15.496;2024-02-28T17:17:40;52.50;;;19.38;;
25721;SDS011;13578;53.450;15.496;2024-02-28T17:20:41;57.17;;;22.08;;
25721;SDS011;13578;53.450;15.496;2024-02-28T17:23:42;55.17;;;20.00;;
25721;SDS011;13578;53.450;15.496;2024-02-28T17:26:42;56.42;;;19.10;;
25721;SDS011;13578;53.450;15.496;2024-02-28T17:29:43;51.25;;;19.73;;
25721;SDS011;13578;53.450;15.496;2024-02-28T17:32:45;41.30;;;19.73;;
25721;SDS011;13578;53.450;15.496;2024-02-28T17:35:48;55.67;;;18.23;;
25721;SDS011;13578;53.450;15.496;2024-02-28T17:38:49;64.47;;;23.48;;
25721;SDS011;13578;53.450;15.496;2024-02-28T17:41:49;45.03;;;21.08;;